Latest Weather Observations for Williamtown

IDN60801

Issued at 12:02 pm EST Tuesday 31 May 2016 (issued every 30 minutes, with the page automatically refreshed every 10 minutes)

About weather observations | Map of weather stations | Latest weather observations for NSW | Other Formats
Station Details ID: 061078 Name: WILLIAMTOWN RAAF Lat: -32.79 Lon: 151.84 Height: 9.0 m
Data from the previous 72 hours. | See also: Recent months at Williamtown
Date/Time
EST
Temp
°C
App
Temp
°C
Dew
Point
Rel
Hum
%
Delta-T
°C
Wind Press
QNH
hPa
Press
MSL
hPa
Rain
since 9 am
mm
Dir
 
Spd
km/h
Gust
km/h
Spd
kts
Gust
kts
31/12:00pm 18.2 15.8 8.7 54 4.9 SW 11 15 6 8 1027.6 1027.6 -
31/11:30am 16.9 14.7 7.9 55 4.5 W 9 13 5 7 1028.1 1028.1 0.0
31/11:00am 16.6 14.0 7.6 55 4.5 WSW 11 17 6 9 1028.6 1028.6 0.0
31/10:30am 15.0 12.5 6.5 57 4.1 WNW 9 15 5 8 1029.0 1029.0 0.0
31/10:00am 13.2 9.0 5.7 60 3.5 NW 17 19 9 10 1029.4 1029.4 0.0
31/09:30am 11.8 8.2 5.0 63 3.1 NW 13 17 7 9 1029.8 1029.8 0.0
31/09:00am 10.8 6.9 5.5 70 2.4 NW 15 19 8 10 1029.5 1029.5 0.0
31/08:30am 8.4 4.8 5.0 79 1.5 WNW 13 15 7 8 1029.2 1029.2 0.0
31/08:00am 6.9 2.8 4.6 85 1.0 WNW 15 19 8 10 1029.1 1029.1 0.0
31/07:30am 5.9 1.8 4.2 89 0.7 NW 15 17 8 9 1028.8 1028.8 0.0
31/07:00am 5.4 1.2 4.0 91 0.6 NW 15 19 8 10 1028.6 1028.6 0.0
31/06:30am 4.3 0.1 3.6 95 0.3 NW 15 17 8 9 1028.2 1028.2 0.0
31/06:00am 4.3 0.8 3.3 93 0.4 WNW 11 13 6 7 1027.8 1027.8 0.0
31/05:30am 4.2 0.3 3.2 93 0.4 WNW 13 13 7 7 1027.8 1027.8 0.0
31/05:00am 4.1 -0.2 3.1 93 0.4 NW 15 17 8 9 1027.5 1027.5 0.0
31/04:30am 3.9 0.0 3.2 95 0.3 WNW 13 15 7 8 1027.1 1027.1 0.0
31/04:00am 3.7 1.0 2.7 93 0.4 WNW 6 7 3 4 1026.9 1026.9 0.0
31/03:30am 4.6 1.5 3.4 92 0.5 WNW 9 11 5 6 1026.9 1026.9 0.0
31/03:00am 4.8 0.6 3.8 93 0.4 NW 15 17 8 9 1026.9 1026.9 0.0
31/02:30am 4.6 1.2 3.9 95 0.3 WNW 11 15 6 8 1027.1 1027.1 0.0
31/02:00am 4.7 0.5 3.7 93 0.4 WNW 15 15 8 8 1027.0 1027.0 0.0
31/01:30am 4.8 1.3 3.6 92 0.5 WNW 11 13 6 7 1027.3 1027.3 0.0
31/01:00am 4.9 1.5 3.9 93 0.4 WNW 11 13 6 7 1027.2 1027.2 0.0
31/12:30am 5.2 1.5 4.2 93 0.4 WNW 13 17 7 9 1027.0 1027.0 0.0
31/12:00am 6.0 3.1 4.6 91 0.6 NW 9 11 5 6 1027.1 1027.1 0.0
 
Date/Time
EST
Temp
°C
App
Temp
°C
Dew
Point
Rel
Hum
%
Delta-T
°C
Wind Press
QNH
hPa
Press
MSL
hPa
Rain
since 9 am
mm
Dir
 
Spd
km/h
Gust
km/h
Spd
kts
Gust
kts
30/11:30pm 5.7 2.4 4.5 92 0.5 WNW 11 11 6 6 1027.3 1027.3 0.0
30/11:00pm 5.7 2.7 4.0 89 0.7 NW 9 9 5 5 1027.3 1027.3 0.0
30/10:30pm 7.5 4.7 5.0 84 1.1 NW 9 11 5 6 1027.3 1027.3 0.0
30/10:00pm 5.8 2.4 4.1 89 0.7 NW 11 11 6 6 1027.1 1027.1 0.0
30/09:30pm 5.9 3.0 4.7 92 0.5 NNW 9 9 5 5 1026.9 1026.9 0.0
30/09:00pm 6.1 4.9 4.5 89 0.7 CALM 0 0 0 0 1026.8 1026.8 0.0
30/08:30pm 6.4 4.6 5.3 93 0.5 NW 4 7 2 4 1026.7 1026.7 0.0
30/08:00pm 6.9 5.8 5.3 89 0.7 CALM 0 0 0 0 1026.5 1026.5 0.0
30/07:30pm 7.6 5.3 5.8 88 0.8 NW 7 9 4 5 1026.3 1026.3 0.0
30/07:00pm 8.3 7.5 6.6 89 0.8 CALM 0 0 0 0 1026.2 1026.2 0.0
30/06:30pm 9.2 7.3 6.6 84 1.2 WNW 6 7 3 4 1026.0 1026.0 0.0
30/06:00pm 10.4 9.7 6.8 78 1.7 CALM 0 0 0 0 1025.7 1025.7 0.0
30/05:30pm 12.5 10.4 6.8 68 2.7 SSW 7 11 4 6 1025.3 1025.3 0.0
30/05:00pm 14.5 12.5 7.1 61 3.6 SSW 7 9 4 5 1025.0 1025.0 0.0
30/04:30pm 15.7 13.2 6.7 55 4.4 S 9 13 5 7 1024.8 1024.8 0.0
30/04:00pm 16.8 13.4 6.1 49 5.2 S 13 19 7 10 1024.5 1024.5 0.0
30/03:30pm 16.9 12.9 6.7 51 5.0 SSE 17 22 9 12 1024.2 1024.2 0.0
30/03:00pm 17.3 13.4 7.3 52 5.0 SSE 17 20 9 11 1024.0 1024.0 0.0
30/02:30pm 17.7 14.0 6.3 47 5.6 SSE 15 20 8 11 1023.9 1023.9 0.0
30/02:00pm 17.7 13.8 3.4 38 6.6 SSW 13 20 7 11 1023.8 1023.8 0.0
30/01:30pm 17.6 15.3 2.6 36 6.8 W 4 13 2 7 1023.9 1023.9 0.0
30/01:00pm 17.8 14.5 2.6 36 6.9 WNW 9 13 5 7 1024.1 1024.1 0.0
30/12:30pm 17.4 13.0 0.3 31 7.4 W 13 20 7 11 1024.2 1024.2 0.0
30/12:00pm 16.5 12.2 0.8 34 6.8 WNW 13 17 7 9 1024.7 1024.7 0.0
30/11:30am 15.6 11.0 1.3 38 6.2 WNW 15 22 8 12 1025.2 1025.2 0.0
30/11:00am 15.0 9.7 1.7 40 5.8 NW 19 26 10 14 1025.6 1025.6 0.0
30/10:30am 13.7 8.5 2.2 45 5.0 WNW 19 26 10 14 1025.9 1025.9 0.0
30/10:00am 12.4 7.0 2.7 51 4.2 WNW 20 26 11 14 1026.0 1026.0 0.0
30/09:30am 11.1 4.7 3.0 57 3.5 WNW 26 33 14 18 1026.0 1026.0 0.0
30/09:00am 10.0 3.2 3.0 62 3.0 NW 28 32 15 17 1025.8 1025.8 0.0
30/08:30am 8.8 2.3 2.9 66 2.5 WNW 26 32 14 17 1025.4 1025.4 0.0
30/08:00am 8.0 1.9 3.0 71 2.1 WNW 24 30 13 16 1025.1 1025.1 0.0
30/07:30am 7.0 0.9 2.9 75 1.7 WNW 24 30 13 16 1024.7 1024.7 0.0
30/07:00am 6.2 0.9 3.1 80 1.3 WNW 20 26 11 14 1024.7 1024.7 0.0
30/06:30am 5.9 0.8 3.0 82 1.2 WNW 19 26 10 14 1024.2 1024.2 0.0
30/06:00am 5.9 0.8 3.0 82 1.2 WNW 19 24 10 13 1023.7 1023.7 0.0
30/05:30am 6.4 1.1 3.0 79 1.4 WNW 20 26 11 14 1023.4 1023.4 0.0
30/05:00am 5.9 1.2 3.2 83 1.1 WNW 17 22 9 12 1023.1 1023.1 0.0
30/04:30am 5.7 1.4 3.0 83 1.1 WNW 15 17 8 9 1022.9 1022.9 0.0
30/04:00am 6.6 1.9 3.2 79 1.4 WNW 17 20 9 11 1022.5 1022.5 0.0
30/03:30am 7.0 2.3 3.4 78 1.5 WNW 17 22 9 12 1022.2 1022.2 0.0
30/03:00am 7.0 2.3 3.4 78 1.5 WNW 17 20 9 11 1022.1 1022.1 0.0
30/02:30am 7.0 2.7 3.4 78 1.5 WNW 15 19 8 10 1022.0 1022.0 0.0
30/02:00am 7.0 2.7 3.4 78 1.5 WNW 15 17 8 9 1022.0 1022.0 0.0
30/01:30am 7.6 2.9 3.3 74 1.8 NW 17 20 9 11 1021.9 1021.9 0.0
30/01:00am 8.6 3.6 3.5 70 2.2 WNW 19 22 10 12 1021.5 1021.5 0.0
30/12:30am 9.2 4.1 3.1 65 2.6 NW 19 24 10 13 1021.3 1021.3 0.0
30/12:00am 9.2 4.2 3.4 67 2.5 NW 19 24 10 13 1021.3 1021.3 0.0
 
Date/Time
EST
Temp
°C
App
Temp
°C
Dew
Point
Rel
Hum
%
Delta-T
°C
Wind Press
QNH
hPa
Press
MSL
hPa
Rain
since 9 am
mm
Dir
 
Spd
km/h
Gust
km/h
Spd
kts
Gust
kts
29/11:30pm 9.6 4.4 3.3 65 2.7 WNW 20 24 11 13 1021.3 1021.3 0.0
29/11:00pm 10.2 4.6 3.3 62 3.0 WNW 22 28 12 15 1021.1 1021.0 0.0
29/10:30pm 10.7 4.7 3.1 59 3.3 WNW 24 30 13 16 1021.0 1020.9 0.0
29/10:00pm 10.9 4.9 3.1 58 3.4 WNW 24 30 13 16 1021.0 1020.9 0.0
29/09:30pm 11.2 5.9 3.2 58 3.5 WNW 20 28 11 15 1020.8 1020.7 0.0
29/09:00pm 11.6 5.9 2.8 54 3.8 WNW 22 28 12 15 1020.8 1020.7 0.0
29/08:30pm 10.6 5.5 3.2 60 3.2 NW 19 24 10 13 1020.6 1020.5 0.0
29/08:00pm 9.6 5.2 2.8 62 2.9 NW 15 17 8 9 1020.4 1020.3 0.0
29/07:30pm 10.7 6.7 2.8 58 3.4 NW 13 19 7 10 1019.9 1019.8 0.0
29/07:00pm 10.4 6.4 3.0 60 3.2 NW 13 15 7 8 1019.7 1019.6 0.0
29/06:30pm 10.9 6.9 2.8 57 3.5 NW 13 15 7 8 1019.3 1019.2 0.0
29/06:00pm 12.1 7.6 2.4 51 4.2 NW 15 17 8 9 1018.9 1018.8 0.0
29/05:30pm 13.0 7.8 2.5 49 4.6 WNW 19 22 10 12 1018.6 1018.5 0.0
29/05:00pm 14.0 9.5 2.1 44 5.2 NW 15 19 8 10 1018.2 1018.1 0.0
29/04:30pm 15.2 9.9 2.1 41 5.8 NW 19 26 10 14 1018.0 1017.9 0.0
29/04:00pm 16.8 10.8 1.0 34 6.9 WNW 22 30 12 16 1017.7 1017.6 0.0
29/03:30pm 17.5 11.1 1.2 33 7.2 WNW 24 33 13 18 1017.3 1017.2 0.0
29/03:00pm 17.7 10.9 0.9 32 7.4 WNW 26 33 14 18 1017.1 1017.0 0.0
29/02:30pm 17.9 11.4 0.2 30 7.7 WNW 24 32 13 17 1016.9 1016.8 0.0
29/02:00pm 17.7 10.9 0.5 31 7.5 WNW 26 33 14 18 1016.8 1016.7 0.0
29/01:30pm 18.1 11.3 0.5 30 7.7 W 26 35 14 19 1016.8 1016.7 0.0
29/01:00pm 17.9 11.6 1.6 33 7.3 W 24 35 13 19 1016.8 1016.7 0.0
29/12:30pm 17.6 11.3 1.7 34 7.1 WNW 24 32 13 17 1017.1 1017.0 0.0
29/12:00pm 16.6 9.9 1.4 36 6.7 WNW 26 35 14 19 1017.4 1017.3 0.0
29/11:30am 16.6 10.0 2.0 37 6.5 WNW 26 39 14 21 1017.6 1017.5 0.0
29/11:00am 16.0 8.7 2.4 40 6.1 WNW 30 37 16 20 1017.9 1017.8 0.0
29/10:30am 15.3 8.6 3.4 45 5.4 WNW 28 39 15 21 1018.2 1018.1 0.0
29/10:00am 14.9 7.3 4.0 48 5.0 WNW 33 41 18 22 1018.2 1018.1 0.0
29/09:30am 13.7 6.8 4.6 54 4.2 WNW 30 41 16 22 1018.3 1018.2 0.0
29/09:00am 13.1 6.5 5.9 61 3.4 WNW 30 41 16 22 1018.0 1017.9 0.0
29/08:30am 12.2 4.6 6.0 66 2.9 WNW 35 48 19 26 1017.7 1017.6 0.0
29/08:00am 11.0 4.7 5.8 70 2.4 WNW 28 37 15 20 1017.5 1017.4 0.0
29/07:30am 10.1 3.4 5.7 74 2.0 WNW 30 37 16 20 1017.0 1016.9 0.0
29/07:00am 9.5 2.8 5.8 78 1.7 WNW 30 37 16 20 1016.6 1016.5 0.0
29/06:30am 9.2 2.5 5.4 77 1.7 WNW 30 37 16 20 1016.3 1016.2 0.0
29/06:00am 8.9 3.0 5.6 80 1.5 WNW 26 35 14 19 1016.0 1015.9 0.0
29/05:30am 9.1 3.2 5.6 79 1.6 WNW 26 32 14 17 1015.7 1015.6 0.0
29/05:00am 9.3 3.3 5.3 76 1.8 WNW 26 32 14 17 1015.2 1015.1 0.0
29/04:30am 9.7 3.7 5.3 74 2.0 WNW 26 44 14 24 1014.9 1014.8 0.0
29/04:00am 9.7 3.3 5.0 72 2.1 WNW 28 33 15 18 1014.7 1014.6 0.0
29/03:30am 9.7 2.8 4.8 71 2.2 WNW 30 37 16 20 1014.6 1014.5 0.0
29/03:00am 9.8 2.6 4.9 71 2.2 WNW 32 43 17 23 1014.4 1014.3 0.0
29/02:30am 10.1 2.9 5.0 70 2.3 WNW 32 44 17 24 1014.3 1014.2 0.0
29/02:00am 10.3 2.5 5.0 69 2.4 WNW 35 48 19 26 1014.1 1014.0 0.0
29/01:30am 10.5 2.3 5.0 69 2.5 WNW 37 52 20 28 1014.1 1014.0 0.0
29/01:00am 10.5 2.7 5.0 69 2.5 WNW 35 44 19 24 1013.8 1013.7 0.0
29/12:30am 10.4 2.6 5.1 69 2.4 WNW 35 46 19 25 1013.6 1013.5 0.0
29/12:00am 10.7 3.3 5.0 68 2.6 WNW 33 44 18 24 1013.4 1013.3 0.0
 
Date/Time
EST
Temp
°C
App
Temp
°C
Dew
Point
Rel
Hum
%
Delta-T
°C
Wind Press
QNH
hPa
Press
MSL
hPa
Rain
since 9 am
mm
Dir
 
Spd
km/h
Gust
km/h
Spd
kts
Gust
kts
28/11:30pm 10.7 3.3 5.2 69 2.5 WNW 33 41 18 22 1013.3 1013.2 0.0
28/11:00pm 10.8 3.6 5.1 68 2.6 WNW 32 41 17 22 1013.3 1013.2 0.0
28/10:30pm 11.0 2.8 4.8 65 2.8 WNW 37 52 20 28 1013.1 1013.0 0.0
28/10:00pm 11.3 3.1 4.7 64 3.0 WNW 37 52 20 28 1012.7 1012.6 0.0
28/09:30pm 11.4 4.1 4.5 62 3.1 WNW 32 41 17 22 1012.5 1012.4 0.0
28/09:00pm 11.3 4.0 4.4 62 3.1 WNW 32 44 17 24 1012.4 1012.3 0.0
28/08:30pm 11.6 5.1 4.5 61 3.2 WNW 28 39 15 21 1012.1 1012.0 0.0
28/08:00pm 11.9 4.5 4.1 59 3.5 WNW 32 39 17 21 1011.8 1011.7 0.0
28/07:30pm 12.2 4.8 4.2 58 3.6 WNW 32 43 17 23 1011.2 1011.1 0.0
28/07:00pm 12.1 5.2 4.4 59 3.5 WNW 30 44 16 24 1010.6 1010.5 0.0
28/06:30pm 12.3 5.7 4.1 57 3.7 WNW 28 35 15 19 1010.3 1010.2 0.0
28/06:00pm 12.6 6.0 4.0 56 3.9 WNW 28 35 15 19 1009.8 1009.7 0.0
28/05:30pm 13.2 5.7 3.7 52 4.3 WNW 32 41 17 22 1009.1 1009.0 0.0
28/05:00pm 13.9 7.1 3.2 48 4.8 WNW 28 39 15 21 1008.2 1008.2 0.0
28/04:30pm 14.7 7.1 2.9 45 5.3 WNW 32 41 17 22 1007.8 1007.8 0.0
28/04:03pm 15.5 7.2 2.3 41 5.9 WNW 35 54 19 29 1007.6 1007.6 0.0
28/04:00pm 15.6 6.9 2.1 40 6.0 WNW 37 54 20 29 1007.5 1007.5 0.0
28/03:41pm 16.1 7.1 2.3 39 6.2 WNW 39 57 21 31 1007.3 1007.3 0.0
28/03:30pm 16.4 8.1 2.1 38 6.4 WNW 35 50 19 27 1007.1 1007.1 0.0
28/03:14pm 16.4 8.3 3.1 41 6.1 WNW 35 54 19 29 1006.9 1006.9 0.0
28/03:00pm 16.5 8.0 2.9 40 6.2 WNW 37 52 20 28 1006.7 1006.7 0.0
28/02:50pm 17.0 8.3 1.8 36 6.8 WNW 37 57 20 31 1006.4 1006.4 0.0
28/02:30pm 17.7 8.6 2.0 35 7.1 NW 39 52 21 28 1005.9 1005.9 0.0
28/02:00pm 16.5 6.9 1.3 36 6.7 WNW 41 61 22 33 1006.1 1006.1 0.0
28/01:40pm 17.2 8.3 2.8 38 6.6 NW 39 57 21 31 1006.0 1006.0 0.0
28/01:30pm 17.1 7.4 2.6 38 6.6 NW 43 54 23 29 1006.0 1006.0 0.0
28/01:00pm 17.0 7.2 2.2 37 6.7 WNW 43 57 23 31 1005.9 1005.9 0.0
28/12:38pm 16.6 7.6 4.3 44 5.8 WNW 41 65 22 35 1006.3 1006.3 0.0
28/12:30pm 15.8 6.7 4.0 45 5.5 WNW 41 57 22 31 1006.5 1006.5 0.0
28/12:15pm 16.2 8.7 4.5 45 5.5 WNW 33 52 18 28 1006.4 1006.4 0.0

Other Formats:

Comma delimited format used in spreadsheet applications
http://www.bom.gov.au/fwo/IDN60801/IDN60801.94776.axf

JavaScript Object Notation format (JSON) in row-major order
http://www.bom.gov.au/fwo/IDN60801/IDN60801.94776.json